sensor_id;sensor_type;location;lat;lon;timestamp;P1;durP1;ratioP1;P2;durP2;ratioP2
44116;SDS011;29781;49.480;8.512;2022-08-25T00:01:20;8.50;;;2.92;;
44116;SDS011;29781;49.480;8.512;2022-08-25T00:03:48;3.33;;;2.88;;
44116;SDS011;29781;49.480;8.512;2022-08-25T00:06:15;3.22;;;2.92;;
44116;SDS011;29781;49.480;8.512;2022-08-25T00:08:41;4.43;;;2.90;;
44116;SDS011;29781;49.480;8.512;2022-08-25T00:11:09;4.18;;;3.00;;
44116;SDS011;29781;49.480;8.512;2022-08-25T00:13:39;3.63;;;3.30;;
44116;SDS011;29781;49.480;8.512;2022-08-25T00:16:07;3.95;;;2.88;;
44116;SDS011;29781;49.480;8.512;2022-08-25T00:18:34;8.43;;;3.22;;
44116;SDS011;29781;49.480;8.512;2022-08-25T00:21:01;3.33;;;2.95;;
44116;SDS011;29781;49.480;8.512;2022-08-25T00:23:27;4.32;;;2.97;;
44116;SDS011;29781;49.480;8.512;2022-08-25T00:25:53;3.40;;;3.08;;
44116;SDS011;29781;49.480;8.512;2022-08-25T00:28:19;4.60;;;2.88;;
44116;SDS011;29781;49.480;8.512;2022-08-25T00:30:45;6.13;;;2.90;;
44116;SDS011;29781;49.480;8.512;2022-08-25T00:33:11;3.40;;;2.95;;
44116;SDS011;29781;49.480;8.512;2022-08-25T00:35:37;4.00;;;2.88;;
44116;SDS011;29781;49.480;8.512;2022-08-25T00:38:06;3.88;;;3.00;;
44116;SDS011;29781;49.480;8.512;2022-08-25T00:40:32;4.75;;;3.50;;
44116;SDS011;29781;49.480;8.512;2022-08-25T00:42:58;3.90;;;2.70;;
44116;SDS011;29781;49.480;8.512;2022-08-25T00:45:24;4.30;;;3.03;;
44116;SDS011;29781;49.480;8.512;2022-08-25T00:47:50;3.40;;;3.05;;
44116;SDS011;29781;49.480;8.512;2022-08-25T00:50:17;5.35;;;3.03;;
44116;SDS011;29781;49.480;8.512;2022-08-25T00:52:45;5.00;;;2.67;;
44116;SDS011;29781;49.480;8.512;2022-08-25T00:55:17;4.85;;;3.30;;
44116;SDS011;29781;49.480;8.512;2022-08-25T00:57:47;4.85;;;2.88;;
44116;SDS011;29781;49.480;8.512;2022-08-25T01:00:18;3.38;;;3.08;;
44116;SDS011;29781;49.480;8.512;2022-08-25T01:02:46;4.25;;;3.13;;
44116;SDS011;29781;49.480;8.512;2022-08-25T01:05:12;3.75;;;3.33;;
44116;SDS011;29781;49.480;8.512;2022-08-25T01:07:38;4.75;;;3.35;;
44116;SDS011;29781;49.480;8.512;2022-08-25T01:10:06;4.60;;;3.38;;
44116;SDS011;29781;49.480;8.512;2022-08-25T01:12:33;3.40;;;3.10;;
44116;SDS011;29781;49.480;8.512;2022-08-25T01:15:01;5.63;;;2.90;;
44116;SDS011;29781;49.480;8.512;2022-08-25T01:17:32;3.50;;;3.20;;
44116;SDS011;29781;49.480;8.512;2022-08-25T01:19:59;4.13;;;3.42;;
44116;SDS011;29781;49.480;8.512;2022-08-25T01:22:25;15.38;;;3.55;;
44116;SDS011;29781;49.480;8.512;2022-08-25T01:24:56;4.00;;;3.20;;
44116;SDS011;29781;49.480;8.512;2022-08-25T01:27:25;4.25;;;3.20;;
44116;SDS011;29781;49.480;8.512;2022-08-25T01:29:50;3.55;;;3.25;;
44116;SDS011;29781;49.480;8.512;2022-08-25T01:32:16;3.30;;;3.00;;
44116;SDS011;29781;49.480;8.512;2022-08-25T01:34:43;5.07;;;3.28;;
44116;SDS011;29781;49.480;8.512;2022-08-25T01:37:10;5.65;;;3.30;;
44116;SDS011;29781;49.480;8.512;2022-08-25T01:39:37;3.67;;;3.38;;
44116;SDS011;29781;49.480;8.512;2022-08-25T01:44:39;4.72;;;3.40;;
44116;SDS011;29781;49.480;8.512;2022-08-25T01:47:06;3.83;;;3.40;;
44116;SDS011;29781;49.480;8.512;2022-08-25T01:49:32;5.75;;;3.13;;
44116;SDS011;29781;49.480;8.512;2022-08-25T01:52:00;3.10;;;2.85;;
44116;SDS011;29781;49.480;8.512;2022-08-25T01:54:29;3.83;;;3.47;;
44116;SDS011;29781;49.480;8.512;2022-08-25T01:56:56;3.55;;;3.25;;
44116;SDS011;29781;49.480;8.512;2022-08-25T01:59:22;3.92;;;3.53;;
44116;SDS011;29781;49.480;8.512;2022-08-25T02:01:50;4.13;;;3.40;;
44116;SDS011;29781;49.480;8.512;2022-08-25T02:04:15;4.15;;;3.75;;
44116;SDS011;29781;49.480;8.512;2022-08-25T02:06:41;3.70;;;3.40;;
44116;SDS011;29781;49.480;8.512;2022-08-25T02:09:08;4.57;;;3.95;;
44116;SDS011;29781;49.480;8.512;2022-08-25T02:11:39;3.95;;;3.55;;
44116;SDS011;29781;49.480;8.512;2022-08-25T02:14:07;6.97;;;3.70;;
44116;SDS011;29781;49.480;8.512;2022-08-25T02:16:36;3.53;;;3.22;;
44116;SDS011;29781;49.480;8.512;2022-08-25T02:19:03;3.67;;;3.30;;
44116;SDS011;29781;49.480;8.512;2022-08-25T02:21:30;4.35;;;3.60;;
44116;SDS011;29781;49.480;8.512;2022-08-25T02:23:57;3.50;;;3.20;;
44116;SDS011;29781;49.480;8.512;2022-08-25T02:26:23;5.47;;;3.42;;
44116;SDS011;29781;49.480;8.512;2022-08-25T02:28:50;4.05;;;3.45;;
44116;SDS011;29781;49.480;8.512;2022-08-25T02:31:17;4.47;;;3.70;;
44116;SDS011;29781;49.480;8.512;2022-08-25T02:33:45;4.03;;;3.70;;
44116;SDS011;29781;49.480;8.512;2022-08-25T02:36:11;4.22;;;3.83;;
44116;SDS011;29781;49.480;8.512;2022-08-25T02:38:37;6.70;;;4.32;;
44116;SDS011;29781;49.480;8.512;2022-08-25T02:41:08;4.18;;;3.88;;
44116;SDS011;29781;49.480;8.512;2022-08-25T02:43:36;4.30;;;3.95;;
44116;SDS011;29781;49.480;8.512;2022-08-25T02:46:03;4.47;;;4.07;;
44116;SDS011;29781;49.480;8.512;2022-08-25T02:48:29;5.45;;;3.78;;
44116;SDS011;29781;49.480;8.512;2022-08-25T02:50:57;3.65;;;3.35;;
44116;SDS011;29781;49.480;8.512;2022-08-25T02:53:24;6.50;;;3.90;;
44116;SDS011;29781;49.480;8.512;2022-08-25T02:55:51;4.38;;;3.97;;
44116;SDS011;29781;49.480;8.512;2022-08-25T02:58:17;4.22;;;3.90;;
44116;SDS011;29781;49.480;8.512;2022-08-25T03:00:44;7.88;;;3.80;;
44116;SDS011;29781;49.480;8.512;2022-08-25T03:03:10;4.65;;;3.47;;
44116;SDS011;29781;49.480;8.512;2022-08-25T03:05:36;4.20;;;3.80;;
44116;SDS011;29781;49.480;8.512;2022-08-25T03:08:03;5.07;;;3.53;;
44116;SDS011;29781;49.480;8.512;2022-08-25T03:10:30;4.45;;;3.65;;
44116;SDS011;29781;49.480;8.512;2022-08-25T03:12:55;5.57;;;4.20;;
44116;SDS011;29781;49.480;8.512;2022-08-25T03:15:21;5.68;;;4.05;;
44116;SDS011;29781;49.480;8.512;2022-08-25T03:17:49;6.75;;;4.68;;
44116;SDS011;29781;49.480;8.512;2022-08-25T03:20:15;9.55;;;4.57;;
44116;SDS011;29781;49.480;8.512;2022-08-25T03:22:42;7.47;;;4.60;;
44116;SDS011;29781;49.480;8.512;2022-08-25T03:25:08;9.35;;;4.53;;
44116;SDS011;29781;49.480;8.512;2022-08-25T03:27:52;15.60;;;5.10;;
44116;SDS011;29781;49.480;8.512;2022-08-25T03:30:18;5.78;;;4.50;;
44116;SDS011;29781;49.480;8.512;2022-08-25T03:32:44;7.13;;;4.30;;
44116;SDS011;29781;49.480;8.512;2022-08-25T03:35:10;9.40;;;4.47;;
44116;SDS011;29781;49.480;8.512;2022-08-25T03:37:36;6.13;;;4.57;;
44116;SDS011;29781;49.480;8.512;2022-08-25T03:40:03;6.05;;;4.35;;
44116;SDS011;29781;49.480;8.512;2022-08-25T03:42:31;9.60;;;4.75;;
44116;SDS011;29781;49.480;8.512;2022-08-25T03:44:57;6.93;;;4.60;;
44116;SDS011;29781;49.480;8.512;2022-08-25T03:47:23;7.88;;;4.88;;
44116;SDS011;29781;49.480;8.512;2022-08-25T03:49:50;5.05;;;4.55;;
44116;SDS011;29781;49.480;8.512;2022-08-25T03:52:16;9.55;;;4.93;;
44116;SDS011;29781;49.480;8.512;2022-08-25T03:54:42;6.72;;;4.72;;
44116;SDS011;29781;49.480;8.512;2022-08-25T03:57:09;11.75;;;4.88;;
44116;SDS011;29781;49.480;8.512;2022-08-25T03:59:35;11.82;;;4.70;;
44116;SDS011;29781;49.480;8.512;2022-08-25T04:02:02;7.22;;;4.82;;
44116;SDS011;29781;49.480;8.512;2022-08-25T04:04:31;5.50;;;4.68;;
44116;SDS011;29781;49.480;8.512;2022-08-25T04:06:57;7.95;;;4.85;;
44116;SDS011;29781;49.480;8.512;2022-08-25T04:09:23;8.48;;;4.95;;
44116;SDS011;29781;49.480;8.512;2022-08-25T04:11:49;5.55;;;4.72;;
44116;SDS011;29781;49.480;8.512;2022-08-25T04:14:16;10.70;;;5.18;;
44116;SDS011;29781;49.480;8.512;2022-08-25T04:16:42;6.63;;;5.20;;
44116;SDS011;29781;49.480;8.512;2022-08-25T04:19:08;11.07;;;4.97;;
44116;SDS011;29781;49.480;8.512;2022-08-25T04:21:35;5.13;;;4.65;;
44116;SDS011;29781;49.480;8.512;2022-08-25T04:24:03;4.82;;;4.43;;
44116;SDS011;29781;49.480;8.512;2022-08-25T04:26:32;5.97;;;4.75;;
44116;SDS011;29781;49.480;8.512;2022-08-25T04:29:01;6.07;;;4.60;;
44116;SDS011;29781;49.480;8.512;2022-08-25T04:31:29;5.32;;;4.40;;
44116;SDS011;29781;49.480;8.512;2022-08-25T04:33:55;5.25;;;4.75;;
44116;SDS011;29781;49.480;8.512;2022-08-25T04:36:21;7.78;;;5.05;;
44116;SDS011;29781;49.480;8.512;2022-08-25T04:38:48;7.05;;;4.97;;
44116;SDS011;29781;49.480;8.512;2022-08-25T04:41:14;8.70;;;5.18;;
44116;SDS011;29781;49.480;8.512;2022-08-25T04:43:42;5.13;;;4.60;;
44116;SDS011;29781;49.480;8.512;2022-08-25T04:46:12;6.32;;;5.20;;
44116;SDS011;29781;49.480;8.512;2022-08-25T04:48:42;5.40;;;4.90;;
44116;SDS011;29781;49.480;8.512;2022-08-25T04:51:10;5.28;;;4.75;;
44116;SDS011;29781;49.480;8.512;2022-08-25T04:53:38;5.63;;;5.13;;
44116;SDS011;29781;49.480;8.512;2022-08-25T04:56:09;5.53;;;5.00;;
44116;SDS011;29781;49.480;8.512;2022-08-25T04:58:36;7.25;;;5.45;;
44116;SDS011;29781;49.480;8.512;2022-08-25T05:01:05;8.05;;;5.20;;
44116;SDS011;29781;49.480;8.512;2022-08-25T05:03:34;20.83;;;6.90;;
44116;SDS011;29781;49.480;8.512;2022-08-25T05:06:01;26.00;;;7.40;;
44116;SDS011;29781;49.480;8.512;2022-08-25T05:08:27;62.47;;;11.50;;
44116;SDS011;29781;49.480;8.512;2022-08-25T05:10:53;93.68;;;10.63;;
44116;SDS011;29781;49.480;8.512;2022-08-25T05:13:20;57.25;;;10.60;;
44116;SDS011;29781;49.480;8.512;2022-08-25T05:15:54;50.50;;;9.05;;
44116;SDS011;29781;49.480;8.512;2022-08-25T05:18:22;52.78;;;7.68;;
44116;SDS011;29781;49.480;8.512;2022-08-25T05:20:49;29.35;;;6.75;;
44116;SDS011;29781;49.480;8.512;2022-08-25T05:23:18;27.25;;;6.47;;
44116;SDS011;29781;49.480;8.512;2022-08-25T05:25:45;40.20;;;9.25;;
44116;SDS011;29781;49.480;8.512;2022-08-25T05:28:11;39.13;;;7.80;;
44116;SDS011;29781;49.480;8.512;2022-08-25T05:30:38;17.13;;;6.25;;
44116;SDS011;29781;49.480;8.512;2022-08-25T05:33:06;12.63;;;6.20;;
44116;SDS011;29781;49.480;8.512;2022-08-25T05:35:32;21.67;;;6.63;;
44116;SDS011;29781;49.480;8.512;2022-08-25T05:37:57;20.67;;;5.93;;
44116;SDS011;29781;49.480;8.512;2022-08-25T05:40:23;18.02;;;6.05;;
44116;SDS011;29781;49.480;8.512;2022-08-25T05:42:49;17.50;;;6.45;;
44116;SDS011;29781;49.480;8.512;2022-08-25T05:45:15;29.92;;;6.97;;
44116;SDS011;29781;49.480;8.512;2022-08-25T05:47:41;33.10;;;7.60;;
44116;SDS011;29781;49.480;8.512;2022-08-25T05:50:07;21.63;;;6.47;;
44116;SDS011;29781;49.480;8.512;2022-08-25T05:52:33;18.13;;;6.70;;
44116;SDS011;29781;49.480;8.512;2022-08-25T05:55:00;34.97;;;7.78;;
44116;SDS011;29781;49.480;8.512;2022-08-25T05:57:25;21.10;;;6.43;;
44116;SDS011;29781;49.480;8.512;2022-08-25T05:59:51;25.30;;;6.82;;
44116;SDS011;29781;49.480;8.512;2022-08-25T06:02:17;19.00;;;6.85;;
44116;SDS011;29781;49.480;8.512;2022-08-25T06:05:01;33.85;;;7.10;;
44116;SDS011;29781;49.480;8.512;2022-08-25T06:07:27;23.42;;;6.30;;
44116;SDS011;29781;49.480;8.512;2022-08-25T06:09:53;30.58;;;6.72;;
44116;SDS011;29781;49.480;8.512;2022-08-25T06:12:19;27.25;;;6.82;;
44116;SDS011;29781;49.480;8.512;2022-08-25T06:14:45;15.75;;;6.28;;
44116;SDS011;29781;49.480;8.512;2022-08-25T06:17:13;18.05;;;6.20;;
44116;SDS011;29781;49.480;8.512;2022-08-25T06:19:39;15.27;;;6.05;;
44116;SDS011;29781;49.480;8.512;2022-08-25T06:22:05;16.48;;;6.15;;
44116;SDS011;29781;49.480;8.512;2022-08-25T06:24:30;29.75;;;7.03;;
44116;SDS011;29781;49.480;8.512;2022-08-25T06:26:57;33.78;;;7.32;;
44116;SDS011;29781;49.480;8.512;2022-08-25T06:29:23;29.92;;;7.43;;
44116;SDS011;29781;49.480;8.512;2022-08-25T06:31:49;40.10;;;7.60;;
44116;SDS011;29781;49.480;8.512;2022-08-25T06:34:15;26.83;;;6.78;;
44116;SDS011;29781;49.480;8.512;2022-08-25T06:36:42;29.27;;;6.68;;
44116;SDS011;29781;49.480;8.512;2022-08-25T06:39:07;44.88;;;8.30;;
44116;SDS011;29781;49.480;8.512;2022-08-25T06:41:34;31.85;;;7.32;;
44116;SDS011;29781;49.480;8.512;2022-08-25T06:43:59;20.23;;;7.28;;
44116;SDS011;29781;49.480;8.512;2022-08-25T06:46:26;23.75;;;7.00;;
44116;SDS011;29781;49.480;8.512;2022-08-25T06:48:52;19.63;;;7.00;;
44116;SDS011;29781;49.480;8.512;2022-08-25T06:51:19;10.82;;;6.40;;
44116;SDS011;29781;49.480;8.512;2022-08-25T06:53:46;8.38;;;6.20;;
44116;SDS011;29781;49.480;8.512;2022-08-25T06:56:14;8.85;;;6.43;;
44116;SDS011;29781;49.480;8.512;2022-08-25T06:58:40;10.40;;;6.68;;
44116;SDS011;29781;49.480;8.512;2022-08-25T07:01:10;8.68;;;6.63;;
44116;SDS011;29781;49.480;8.512;2022-08-25T07:03:36;10.35;;;7.10;;
44116;SDS011;29781;49.480;8.512;2022-08-25T07:06:02;8.13;;;6.78;;
44116;SDS011;29781;49.480;8.512;2022-08-25T07:08:28;10.77;;;6.38;;
44116;SDS011;29781;49.480;8.512;2022-08-25T07:10:54;10.23;;;6.28;;
44116;SDS011;29781;49.480;8.512;2022-08-25T07:13:19;10.05;;;6.70;;
44116;SDS011;29781;49.480;8.512;2022-08-25T07:15:45;7.60;;;6.60;;
44116;SDS011;29781;49.480;8.512;2022-08-25T07:18:11;7.95;;;5.82;;
44116;SDS011;29781;49.480;8.512;2022-08-25T07:20:37;8.02;;;6.38;;
44116;SDS011;29781;49.480;8.512;2022-08-25T07:23:04;11.50;;;6.15;;
44116;SDS011;29781;49.480;8.512;2022-08-25T07:25:31;7.88;;;5.88;;
44116;SDS011;29781;49.480;8.512;2022-08-25T07:27:57;6.88;;;5.80;;
44116;SDS011;29781;49.480;8.512;2022-08-25T07:30:23;8.35;;;5.93;;
44116;SDS011;29781;49.480;8.512;2022-08-25T07:32:49;6.30;;;5.57;;
44116;SDS011;29781;49.480;8.512;2022-08-25T07:35:14;13.13;;;5.90;;
44116;SDS011;29781;49.480;8.512;2022-08-25T07:37:44;11.07;;;6.55;;
44116;SDS011;29781;49.480;8.512;2022-08-25T07:40:18;8.85;;;6.28;;
44116;SDS011;29781;49.480;8.512;2022-08-25T07:42:50;7.75;;;5.60;;
44116;SDS011;29781;49.480;8.512;2022-08-25T07:45:18;10.43;;;5.85;;
44116;SDS011;29781;49.480;8.512;2022-08-25T07:47:45;8.32;;;6.35;;
44116;SDS011;29781;49.480;8.512;2022-08-25T07:50:11;9.73;;;5.43;;
44116;SDS011;29781;49.480;8.512;2022-08-25T07:52:38;10.43;;;5.70;;
44116;SDS011;29781;49.480;8.512;2022-08-25T07:55:05;9.48;;;5.45;;
44116;SDS011;29781;49.480;8.512;2022-08-25T07:57:32;7.18;;;5.80;;
44116;SDS011;29781;49.480;8.512;2022-08-25T07:59:58;10.90;;;5.50;;
44116;SDS011;29781;49.480;8.512;2022-08-25T08:02:24;7.18;;;5.28;;
44116;SDS011;29781;49.480;8.512;2022-08-25T08:04:51;7.18;;;5.30;;
44116;SDS011;29781;49.480;8.512;2022-08-25T08:07:18;5.97;;;5.40;;
44116;SDS011;29781;49.480;8.512;2022-08-25T08:09:48;8.45;;;5.35;;
44116;SDS011;29781;49.480;8.512;2022-08-25T08:12:14;6.70;;;5.70;;
44116;SDS011;29781;49.480;8.512;2022-08-25T08:14:40;9.13;;;5.57;;
44116;SDS011;29781;49.480;8.512;2022-08-25T08:17:06;7.40;;;5.90;;
44116;SDS011;29781;49.480;8.512;2022-08-25T08:19:33;6.90;;;5.97;;
44116;SDS011;29781;49.480;8.512;2022-08-25T08:21:59;6.38;;;5.72;;
44116;SDS011;29781;49.480;8.512;2022-08-25T08:24:27;5.88;;;5.38;;
44116;SDS011;29781;49.480;8.512;2022-08-25T08:26:54;7.18;;;5.95;;
44116;SDS011;29781;49.480;8.512;2022-08-25T08:29:19;6.30;;;5.70;;
44116;SDS011;29781;49.480;8.512;2022-08-25T08:31:46;6.35;;;5.75;;
44116;SDS011;29781;49.480;8.512;2022-08-25T08:34:12;6.85;;;5.20;;
44116;SDS011;29781;49.480;8.512;2022-08-25T08:36:38;6.35;;;5.75;;
44116;SDS011;29781;49.480;8.512;2022-08-25T08:39:04;6.20;;;5.60;;
44116;SDS011;29781;49.480;8.512;2022-08-25T08:41:42;7.05;;;6.10;;
44116;SDS011;29781;49.480;8.512;2022-08-25T08:44:40;11.75;;;6.63;;
44116;SDS011;29781;49.480;8.512;2022-08-25T08:50:05;6.57;;;5.28;;
44116;SDS011;29781;49.480;8.512;2022-08-25T08:52:37;7.57;;;5.18;;
44116;SDS011;29781;49.480;8.512;2022-08-25T08:57:52;5.57;;;4.97;;
44116;SDS011;29781;49.480;8.512;2022-08-25T09:00:20;6.32;;;5.35;;
44116;SDS011;29781;49.480;8.512;2022-08-25T09:05:13;7.63;;;5.72;;
44116;SDS011;29781;49.480;8.512;2022-08-25T09:07:43;9.27;;;5.60;;
44116;SDS011;29781;49.480;8.512;2022-08-25T09:10:15;6.57;;;5.90;;
44116;SDS011;29781;49.480;8.512;2022-08-25T09:12:43;6.43;;;5.82;;
44116;SDS011;29781;49.480;8.512;2022-08-25T09:15:35;7.63;;;5.60;;
44116;SDS011;29781;49.480;8.512;2022-08-25T09:18:48;6.95;;;5.38;;
44116;SDS011;29781;49.480;8.512;2022-08-25T09:29:58;6.15;;;5.55;;
44116;SDS011;29781;49.480;8.512;2022-08-25T09:32:39;6.13;;;5.53;;
44116;SDS011;29781;49.480;8.512;2022-08-25T09:35:19;7.65;;;5.47;;
44116;SDS011;29781;49.480;8.512;2022-08-25T09:37:54;7.17;;;5.63;;
44116;SDS011;29781;49.480;8.512;2022-08-25T09:40:21;10.38;;;5.40;;
44116;SDS011;29781;49.480;8.512;2022-08-25T09:42:52;6.05;;;5.43;;
44116;SDS011;29781;49.480;8.512;2022-08-25T09:45:32;11.40;;;5.95;;
44116;SDS011;29781;49.480;8.512;2022-08-25T09:48:02;5.85;;;5.35;;
44116;SDS011;29781;49.480;8.512;2022-08-25T09:50:49;5.43;;;4.93;;
44116;SDS011;29781;49.480;8.512;2022-08-25T09:53:17;5.95;;;5.45;;
44116;SDS011;29781;49.480;8.512;2022-08-25T09:55:43;6.35;;;5.60;;
44116;SDS011;29781;49.480;8.512;2022-08-25T09:58:20;19.33;;;6.43;;
44116;SDS011;29781;49.480;8.512;2022-08-25T10:00:59;6.45;;;5.05;;
44116;SDS011;29781;49.480;8.512;2022-08-25T10:03:25;8.05;;;5.70;;
44116;SDS011;29781;49.480;8.512;2022-08-25T10:05:56;7.15;;;5.50;;
44116;SDS011;29781;49.480;8.512;2022-08-25T10:11:30;5.68;;;5.18;;
44116;SDS011;29781;49.480;8.512;2022-08-25T10:14:05;6.20;;;5.60;;
44116;SDS011;29781;49.480;8.512;2022-08-25T10:16:43;7.28;;;5.20;;
44116;SDS011;29781;49.480;8.512;2022-08-25T10:19:25;5.93;;;5.43;;
44116;SDS011;29781;49.480;8.512;2022-08-25T10:22:06;5.78;;;5.18;;
44116;SDS011;29781;49.480;8.512;2022-08-25T10:24:33;5.03;;;4.60;;
44116;SDS011;29781;49.480;8.512;2022-08-25T10:35:17;4.25;;;3.95;;
44116;SDS011;29781;49.480;8.512;2022-08-25T10:38:02;4.85;;;4.30;;
44116;SDS011;29781;49.480;8.512;2022-08-25T10:43:14;6.95;;;4.38;;
44116;SDS011;29781;49.480;8.512;2022-08-25T10:51:40;4.50;;;4.10;;
44116;SDS011;29781;49.480;8.512;2022-08-25T10:59:54;4.45;;;4.05;;
44116;SDS011;29781;49.480;8.512;2022-08-25T11:05:40;4.70;;;3.90;;
44116;SDS011;29781;49.480;8.512;2022-08-25T11:10:55;4.25;;;3.72;;
44116;SDS011;29781;49.480;8.512;2022-08-25T11:13:36;4.47;;;4.07;;
44116;SDS011;29781;49.480;8.512;2022-08-25T11:16:13;5.53;;;4.30;;
44116;SDS011;29781;49.480;8.512;2022-08-25T11:19:00;4.30;;;3.72;;
44116;SDS011;29781;49.480;8.512;2022-08-25T11:26:43;4.00;;;3.60;;
44116;SDS011;29781;49.480;8.512;2022-08-25T11:29:18;3.92;;;3.60;;
44116;SDS011;29781;49.480;8.512;2022-08-25T11:31:49;3.85;;;3.50;;
44116;SDS011;29781;49.480;8.512;2022-08-25T11:34:16;4.28;;;3.97;;
44116;SDS011;29781;49.480;8.512;2022-08-25T11:36:54;3.67;;;3.38;;
44116;SDS011;29781;49.480;8.512;2022-08-25T11:39:30;3.92;;;3.53;;
44116;SDS011;29781;49.480;8.512;2022-08-25T11:44:46;5.13;;;3.60;;
44116;SDS011;29781;49.480;8.512;2022-08-25T11:47:29;4.50;;;3.90;;
44116;SDS011;29781;49.480;8.512;2022-08-25T11:50:31;3.53;;;3.33;;
44116;SDS011;29781;49.480;8.512;2022-08-25T11:55:45;3.78;;;3.47;;
44116;SDS011;29781;49.480;8.512;2022-08-25T12:00:50;3.92;;;3.58;;
44116;SDS011;29781;49.480;8.512;2022-08-25T12:11:44;3.83;;;3.53;;
44116;SDS011;29781;49.480;8.512;2022-08-25T12:19:23;3.90;;;3.50;;
44116;SDS011;29781;49.480;8.512;2022-08-25T12:27:11;3.90;;;3.60;;
44116;SDS011;29781;49.480;8.512;2022-08-25T12:29:59;3.22;;;3.03;;
44116;SDS011;29781;49.480;8.512;2022-08-25T12:39:06;4.82;;;3.40;;
44116;SDS011;29781;49.480;8.512;2022-08-25T12:41:13;4.22;;;3.92;;
44116;SDS011;29781;49.480;8.512;2022-08-25T12:43:44;4.05;;;3.65;;
44116;SDS011;29781;49.480;8.512;2022-08-25T12:48:58;3.97;;;3.60;;
44116;SDS011;29781;49.480;8.512;2022-08-25T13:11:06;5.72;;;3.53;;
44116;SDS011;29781;49.480;8.512;2022-08-25T13:16:26;4.15;;;3.70;;
44116;SDS011;29781;49.480;8.512;2022-08-25T13:18:53;3.75;;;3.45;;
44116;SDS011;29781;49.480;8.512;2022-08-25T13:21:24;5.20;;;3.90;;
44116;SDS011;29781;49.480;8.512;2022-08-25T13:24:00;3.85;;;3.55;;
44116;SDS011;29781;49.480;8.512;2022-08-25T13:26:38;3.72;;;3.33;;
44116;SDS011;29781;49.480;8.512;2022-08-25T13:31:33;5.60;;;3.60;;
44116;SDS011;29781;49.480;8.512;2022-08-25T13:34:03;4.17;;;3.03;;
44116;SDS011;29781;49.480;8.512;2022-08-25T13:36:31;4.43;;;3.47;;
44116;SDS011;29781;49.480;8.512;2022-08-25T13:39:25;4.28;;;3.40;;
44116;SDS011;29781;49.480;8.512;2022-08-25T13:41:52;4.07;;;3.78;;
44116;SDS011;29781;49.480;8.512;2022-08-25T13:44:20;5.53;;;3.60;;
44116;SDS011;29781;49.480;8.512;2022-08-25T13:47:03;4.95;;;3.90;;
44116;SDS011;29781;49.480;8.512;2022-08-25T13:49:37;10.75;;;3.67;;
44116;SDS011;29781;49.480;8.512;2022-08-25T13:52:05;7.13;;;3.78;;
44116;SDS011;29781;49.480;8.512;2022-08-25T13:54:37;3.88;;;3.47;;
44116;SDS011;29781;49.480;8.512;2022-08-25T13:59:37;3.53;;;3.22;;
44116;SDS011;29781;49.480;8.512;2022-08-25T14:02:04;3.90;;;3.60;;
44116;SDS011;29781;49.480;8.512;2022-08-25T14:07:25;4.00;;;3.70;;
44116;SDS011;29781;49.480;8.512;2022-08-25T14:12:37;5.53;;;3.50;;
44116;SDS011;29781;49.480;8.512;2022-08-25T14:17:41;5.65;;;3.90;;
44116;SDS011;29781;49.480;8.512;2022-08-25T14:20:29;4.57;;;3.67;;
44116;SDS011;29781;49.480;8.512;2022-08-25T14:23:02;4.88;;;3.63;;
44116;SDS011;29781;49.480;8.512;2022-08-25T14:25:30;3.55;;;3.25;;
44116;SDS011;29781;49.480;8.512;2022-08-25T14:28:04;5.82;;;3.72;;
44116;SDS011;29781;49.480;8.512;2022-08-25T14:30:34;3.65;;;3.35;;
44116;SDS011;29781;49.480;8.512;2022-08-25T14:33:03;3.92;;;3.47;;
44116;SDS011;29781;49.480;8.512;2022-08-25T14:35:29;5.13;;;3.35;;
44116;SDS011;29781;49.480;8.512;2022-08-25T14:37:55;6.15;;;3.40;;
44116;SDS011;29781;49.480;8.512;2022-08-25T14:40:21;4.13;;;3.72;;
44116;SDS011;29781;49.480;8.512;2022-08-25T14:42:47;5.07;;;3.95;;
44116;SDS011;29781;49.480;8.512;2022-08-25T14:45:14;6.10;;;3.67;;
44116;SDS011;29781;49.480;8.512;2022-08-25T14:47:41;3.53;;;3.22;;
44116;SDS011;29781;49.480;8.512;2022-08-25T14:50:09;5.47;;;3.58;;
44116;SDS011;29781;49.480;8.512;2022-08-25T14:52:35;4.47;;;3.10;;
44116;SDS011;29781;49.480;8.512;2022-08-25T14:55:01;3.40;;;3.20;;
44116;SDS011;29781;49.480;8.512;2022-08-25T14:57:27;4.75;;;3.13;;
44116;SDS011;29781;49.480;8.512;2022-08-25T14:59:53;3.65;;;3.35;;
44116;SDS011;29781;49.480;8.512;2022-08-25T15:02:19;3.75;;;3.40;;
44116;SDS011;29781;49.480;8.512;2022-08-25T15:04:53;4.50;;;3.92;;
44116;SDS011;29781;49.480;8.512;2022-08-25T15:07:22;3.80;;;3.50;;
44116;SDS011;29781;49.480;8.512;2022-08-25T15:10:14;4.43;;;3.60;;
44116;SDS011;29781;49.480;8.512;2022-08-25T15:12:40;3.75;;;3.45;;
44116;SDS011;29781;49.480;8.512;2022-08-25T15:15:06;4.95;;;3.95;;
44116;SDS011;29781;49.480;8.512;2022-08-25T15:17:33;5.38;;;3.45;;
44116;SDS011;29781;49.480;8.512;2022-08-25T15:19:59;3.78;;;3.45;;
44116;SDS011;29781;49.480;8.512;2022-08-25T15:22:25;4.68;;;3.38;;
44116;SDS011;29781;49.480;8.512;2022-08-25T15:24:51;4.18;;;3.53;;
44116;SDS011;29781;49.480;8.512;2022-08-25T15:27:18;5.18;;;3.25;;
44116;SDS011;29781;49.480;8.512;2022-08-25T15:29:44;7.35;;;3.83;;
44116;SDS011;29781;49.480;8.512;2022-08-25T15:32:10;3.97;;;3.20;;
44116;SDS011;29781;49.480;8.512;2022-08-25T15:34:36;3.35;;;3.05;;
44116;SDS011;29781;49.480;8.512;2022-08-25T15:37:10;4.22;;;3.50;;
44116;SDS011;29781;49.480;8.512;2022-08-25T15:39:38;3.05;;;2.85;;
44116;SDS011;29781;49.480;8.512;2022-08-25T15:42:05;4.50;;;4.10;;
44116;SDS011;29781;49.480;8.512;2022-08-25T15:44:31;3.58;;;3.17;;
44116;SDS011;29781;49.480;8.512;2022-08-25T15:46:57;3.53;;;3.22;;
44116;SDS011;29781;49.480;8.512;2022-08-25T15:49:23;5.28;;;3.88;;
44116;SDS011;29781;49.480;8.512;2022-08-25T15:51:51;3.50;;;3.20;;
44116;SDS011;29781;49.480;8.512;2022-08-25T15:54:17;3.13;;;2.92;;
44116;SDS011;29781;49.480;8.512;2022-08-25T15:56:44;3.70;;;3.38;;
44116;SDS011;29781;49.480;8.512;2022-08-25T15:59:09;3.28;;;3.00;;
44116;SDS011;29781;49.480;8.512;2022-08-25T16:01:37;4.20;;;3.70;;
44116;SDS011;29781;49.480;8.512;2022-08-25T16:04:03;6.32;;;3.42;;
44116;SDS011;29781;49.480;8.512;2022-08-25T16:06:29;3.40;;;3.10;;
44116;SDS011;29781;49.480;8.512;2022-08-25T16:08:55;3.38;;;3.08;;
44116;SDS011;29781;49.480;8.512;2022-08-25T16:11:22;3.67;;;3.38;;
44116;SDS011;29781;49.480;8.512;2022-08-25T16:13:49;3.55;;;2.90;;
44116;SDS011;29781;49.480;8.512;2022-08-25T16:16:16;4.13;;;2.97;;
44116;SDS011;29781;49.480;8.512;2022-08-25T16:18:43;3.40;;;3.05;;
44116;SDS011;29781;49.480;8.512;2022-08-25T16:21:09;3.13;;;2.83;;
44116;SDS011;29781;49.480;8.512;2022-08-25T16:23:37;4.75;;;2.95;;
44116;SDS011;29781;49.480;8.512;2022-08-25T16:26:04;5.60;;;3.50;;
44116;SDS011;29781;49.480;8.512;2022-08-25T16:28:32;5.27;;;3.20;;
44116;SDS011;29781;49.480;8.512;2022-08-25T16:30:59;3.58;;;3.10;;
44116;SDS011;29781;49.480;8.512;2022-08-25T16:33:25;5.53;;;2.97;;
44116;SDS011;29781;49.480;8.512;2022-08-25T16:35:51;3.63;;;3.33;;
44116;SDS011;29781;49.480;8.512;2022-08-25T16:38:16;3.30;;;3.10;;
44116;SDS011;29781;49.480;8.512;2022-08-25T16:40:42;4.35;;;3.15;;
44116;SDS011;29781;49.480;8.512;2022-08-25T16:43:10;3.08;;;2.83;;
44116;SDS011;29781;49.480;8.512;2022-08-25T16:45:36;3.30;;;3.00;;
44116;SDS011;29781;49.480;8.512;2022-08-25T16:48:03;3.00;;;2.80;;
44116;SDS011;29781;49.480;8.512;2022-08-25T16:50:29;3.22;;;2.92;;
44116;SDS011;29781;49.480;8.512;2022-08-25T16:52:56;3.00;;;2.80;;
44116;SDS011;29781;49.480;8.512;2022-08-25T16:55:40;3.58;;;3.28;;
44116;SDS011;29781;49.480;8.512;2022-08-25T16:58:07;4.68;;;3.25;;
44116;SDS011;29781;49.480;8.512;2022-08-25T17:00:34;3.17;;;2.88;;
44116;SDS011;29781;49.480;8.512;2022-08-25T17:03:02;3.20;;;2.90;;